Tweets

Valley Met

METAR
EGOV 020711Z 21015KT 0500 +DZ BKN001 SCT006 13/13 Q1015 RED
EGOV 020650Z 22015KT 0800 FG BKN001 SCT034 13/13 Q1015 RED BECMG 6000 BR BKN015 WHT
EGOV 020609Z 19012KT 0700 FG OVC001 15/15 Q1015 RED BECMG 6000 BR SCT015 WHT
EGOV 020600Z 19010KT 2500 -RA SCT002 BKN005 OVC006 15/15 Q1014 AMB TEMPO 1500 BR SCT001 RED
TAF
TAF AMD EGOV 020739Z 0207/0215 20014KT 0500 FG BKN001 BECMG 0208/0211 9999 NSW SCT030

Gallery

Expand all | Collapse all


Chris’s Daily Photo

Subscribe to:

FourFax Stats

  • Total Stats
    • 312 Posts
    • 158 Comments
    • 48 Comment Posters
    • 28 Links
    • 7 Post Categories
    • 4 Link Categories

Archives